PWSweather.com
Personal Weather Stations
Station Observations
RHPWSHOR1
Lostock, BoltonGB

LostockBoltonGB

Lat: 53.58073044, Lon: -2.52344131

Elevation: 389

Station Type: Oregon Scientific WMR100

Latest ConditionsUpdated 8:33:17 AM GMT Saturday, Feb 13, 2016
Currently Today's Max Today's Min Today's Average
Temperature 37.0°F2.8°C 37.8°F3.2°C 36.1°F2.3°C 36.7°F2.6°C
Dew Point 28.5°F-1.9°C 28.9°F-1.7°C 21.2°F-6.0°C 24.5°F-4.2°C
Winds 2.9 mph WNW4.7 kmh WNW 5.4 mph ENE8.7 kmh ENE - 2.6 mph 4.2 kmh
Wind Gusts 2.9 mph4.7 kmh 5.8 mph9.3 kmh - -
Humidity 71% 72% 53% 61%
Pressure 28.61 in968.8 mb 28.79 in974.9 mb 28.58 in967.8 mb -
Hour Temp Dew Point Humidity Winds Wind Gusts Pressure Precip Precip Rate Daily Precip Total
08:33 AM 37.0°F2.8°C 28.5°F-1.9°C 71% 2.9 mph WNW4.7 kmh WNW 2.9 mph4.7 kmh 28.61 in968.8 mb 0.00 in0.0 mm 0.00 in0.0 mm 0.00 in0.0 mm
08:26 AM 37.0°F2.8°C 28.9°F-1.7°C 72% 2.7 mph NNW4.3 kmh NNW 2.7 mph4.3 kmh 28.58 in967.8 mb 0.00 in0.0 mm 0.00 in0.0 mm 0.00 in0.0 mm
08:19 AM 36.9°F2.7°C 28.7°F-1.8°C 72% 4.3 mph NNE6.9 kmh NNE 4.3 mph6.9 kmh 28.58 in967.8 mb 0.00 in0.0 mm 0.00 in0.0 mm 0.00 in0.0 mm
08:12 AM 36.9°F2.7°C 28.7°F-1.8°C 72% 3.4 mph ESE5.5 kmh ESE 3.4 mph5.5 kmh 28.58 in967.8 mb 0.00 in0.0 mm 0.00 in0.0 mm 0.00 in0.0 mm
08:05 AM 36.7°F2.6°C 28.5°F-1.9°C 72% 2.9 mph ENE4.7 kmh ENE 2.9 mph4.7 kmh 28.58 in967.8 mb 0.00 in0.0 mm 0.00 in0.0 mm 0.00 in0.0 mm
07:58 AM 36.7°F2.6°C 28.5°F-1.9°C 72% 2.5 mph SSW4.0 kmh SSW 2.5 mph4.0 kmh 28.58 in967.8 mb 0.00 in0.0 mm 0.00 in0.0 mm 0.00 in0.0 mm
07:51 AM 36.5°F2.5°C 28.4°F-2.0°C 72% 1.6 mph NNW2.6 kmh NNW 3.1 mph5.0 kmh 28.58 in967.8 mb 0.00 in0.0 mm 0.00 in0.0 mm 0.00 in0.0 mm
07:44 AM 36.5°F2.5°C 28.4°F-2.0°C 72% 2.7 mph WNW4.3 kmh WNW 2.7 mph4.3 kmh 28.58 in967.8 mb 0.00 in0.0 mm 0.00 in0.0 mm 0.00 in0.0 mm
07:37 AM 36.5°F2.5°C 28.4°F-2.0°C 72% 1.6 mph WSW2.6 kmh WSW 3.8 mph6.1 kmh 28.58 in967.8 mb 0.00 in0.0 mm 0.00 in0.0 mm 0.00 in0.0 mm
07:30 AM 36.3°F2.4°C 28.2°F-2.1°C 72% 3.6 mph 5.8 kmh 3.6 mph5.8 kmh 28.58 in967.8 mb 0.00 in0.0 mm 0.00 in0.0 mm 0.00 in0.0 mm
07:23 AM 36.3°F2.4°C 28.2°F-2.1°C 72% 2.7 mph ENE4.3 kmh ENE 3.4 mph5.5 kmh 28.58 in967.8 mb 0.00 in0.0 mm 0.00 in0.0 mm 0.00 in0.0 mm
07:16 AM 36.3°F2.4°C 27.5°F-2.5°C 70% 5.4 mph ENE8.7 kmh ENE 5.4 mph8.7 kmh 28.58 in967.8 mb 0.00 in0.0 mm 0.00 in0.0 mm 0.00 in0.0 mm
07:09 AM 36.1°F2.3°C 27.0°F-2.8°C 69% 5.4 mph ENE8.7 kmh ENE 5.4 mph8.7 kmh 28.58 in967.8 mb 0.00 in0.0 mm 0.00 in0.0 mm 0.00 in0.0 mm
07:01 AM 36.1°F2.3°C 26.6°F-3.0°C 68% 2.7 mph WNW4.3 kmh WNW 2.7 mph4.3 kmh 28.58 in967.8 mb 0.00 in0.0 mm 0.00 in0.0 mm 0.00 in0.0 mm
06:55 AM 36.1°F2.3°C 26.3°F-3.2°C 67% 2.7 mph ENE4.3 kmh ENE 2.7 mph4.3 kmh 28.58 in967.8 mb 0.00 in0.0 mm 0.00 in0.0 mm 0.00 in0.0 mm
06:48 AM 36.1°F2.3°C 25.5°F-3.6°C 65% 3.6 mph E5.8 kmh E 3.6 mph5.8 kmh 28.58 in967.8 mb 0.00 in0.0 mm 0.00 in0.0 mm 0.00 in0.0 mm
06:41 AM 36.1°F2.3°C 25.2°F-3.8°C 64% 2.7 mph WSW4.3 kmh WSW 2.7 mph4.3 kmh 28.61 in968.8 mb 0.00 in0.0 mm 0.00 in0.0 mm 0.00 in0.0 mm
06:34 AM 36.3°F2.4°C 25.0°F-3.9°C 63% 2.7 mph NNE4.3 kmh NNE 2.7 mph4.3 kmh 28.61 in968.8 mb 0.00 in0.0 mm 0.00 in0.0 mm 0.00 in0.0 mm
06:27 AM 36.3°F2.4°C 25.0°F-3.9°C 63% 3.8 mph ENE6.1 kmh ENE 5.8 mph9.3 kmh 28.61 in968.8 mb 0.00 in0.0 mm 0.00 in0.0 mm 0.00 in0.0 mm
06:20 AM 36.3°F2.4°C 24.6°F-4.1°C 62% 4.0 mph ENE6.4 kmh ENE 4.0 mph6.4 kmh 28.61 in968.8 mb 0.00 in0.0 mm 0.00 in0.0 mm 0.00 in0.0 mm
06:13 AM 36.3°F2.4°C 24.2°F-4.3°C 61% 1.6 mph ENE2.6 kmh ENE 3.4 mph5.5 kmh 28.61 in968.8 mb 0.00 in0.0 mm 0.00 in0.0 mm 0.00 in0.0 mm
06:06 AM 36.3°F2.4°C 23.8°F-4.6°C 60% 3.1 mph E5.0 kmh E 3.1 mph5.0 kmh 28.61 in968.8 mb 0.00 in0.0 mm 0.00 in0.0 mm 0.00 in0.0 mm
05:59 AM 36.3°F2.4°C 23.8°F-4.6°C 60% 2.5 mph ESE4.0 kmh ESE 3.1 mph5.0 kmh 28.61 in968.8 mb 0.00 in0.0 mm 0.00 in0.0 mm 0.00 in0.0 mm
05:52 AM 36.3°F2.4°C 23.8°F-4.6°C 60% 2.5 mph NNE4.0 kmh NNE 2.7 mph4.3 kmh 28.61 in968.8 mb 0.00 in0.0 mm 0.00 in0.0 mm 0.00 in0.0 mm
05:45 AM 36.3°F2.4°C 23.8°F-4.6°C 60% 3.1 mph NNW5.0 kmh NNW 4.7 mph7.6 kmh 28.61 in968.8 mb 0.00 in0.0 mm 0.00 in0.0 mm 0.00 in0.0 mm
05:37 AM 36.3°F2.4°C 23.4°F-4.8°C 59% 3.6 mph ESE5.8 kmh ESE 4.0 mph6.4 kmh 28.61 in968.8 mb 0.00 in0.0 mm 0.00 in0.0 mm 0.00 in0.0 mm
05:31 AM 36.3°F2.4°C 23.8°F-4.6°C 60% 2.0 mph WSW3.2 kmh WSW 2.7 mph4.3 kmh 28.61 in968.8 mb 0.00 in0.0 mm 0.00 in0.0 mm 0.00 in0.0 mm
05:23 AM 36.3°F2.4°C 23.8°F-4.6°C 60% 3.8 mph NNW6.1 kmh NNW 3.8 mph6.1 kmh 28.64 in969.9 mb 0.00 in0.0 mm 0.00 in0.0 mm 0.00 in0.0 mm
05:17 AM 36.3°F2.4°C 23.4°F-4.8°C 59% 2.7 mph NNW4.3 kmh NNW 2.7 mph4.3 kmh 28.64 in969.9 mb 0.00 in0.0 mm 0.00 in0.0 mm 0.00 in0.0 mm
05:10 AM 36.3°F2.4°C 23.4°F-4.8°C 59% 1.6 mph NE2.6 kmh NE 2.7 mph4.3 kmh 28.64 in969.9 mb 0.00 in0.0 mm 0.00 in0.0 mm 0.00 in0.0 mm
05:03 AM 36.3°F2.4°C 23.0°F-5.0°C 58% 3.4 mph ESE5.5 kmh ESE 3.4 mph5.5 kmh 28.64 in969.9 mb 0.00 in0.0 mm 0.00 in0.0 mm 0.00 in0.0 mm
04:56 AM 36.3°F2.4°C 23.0°F-5.0°C 58% 2.0 mph NW3.2 kmh NW 2.5 mph4.0 kmh 28.64 in969.9 mb 0.00 in0.0 mm 0.00 in0.0 mm 0.00 in0.0 mm
04:49 AM 36.5°F2.5°C 22.3°F-5.4°C 56% 2.7 mph WNW4.3 kmh WNW 2.9 mph4.7 kmh 28.64 in969.9 mb 0.00 in0.0 mm 0.00 in0.0 mm 0.00 in0.0 mm
04:42 AM 36.3°F2.4°C 21.7°F-5.7°C 55% 2.5 mph ENE4.0 kmh ENE 2.5 mph4.0 kmh 28.64 in969.9 mb 0.00 in0.0 mm 0.00 in0.0 mm 0.00 in0.0 mm
04:35 AM 36.5°F2.5°C 21.9°F-5.6°C 55% 2.9 mph ENE4.7 kmh ENE 2.9 mph4.7 kmh 28.64 in969.9 mb 0.00 in0.0 mm 0.00 in0.0 mm 0.00 in0.0 mm
04:28 AM 36.5°F2.5°C 21.5°F-5.8°C 54% 2.7 mph ESE4.3 kmh ESE 2.7 mph4.3 kmh 28.64 in969.9 mb 0.00 in0.0 mm 0.00 in0.0 mm 0.00 in0.0 mm
04:21 AM 36.7°F2.6°C 21.2°F-6.0°C 53% 2.9 mph ENE4.7 kmh ENE 2.9 mph4.7 kmh 28.67 in970.9 mb 0.00 in0.0 mm 0.00 in0.0 mm 0.00 in0.0 mm
04:14 AM 36.7°F2.6°C 21.2°F-6.0°C 53% 2.5 mph ESE4.0 kmh ESE 2.5 mph4.0 kmh 28.67 in970.9 mb 0.00 in0.0 mm 0.00 in0.0 mm 0.00 in0.0 mm
04:07 AM 36.7°F2.6°C 21.2°F-6.0°C 53% 2.7 mph WNW4.3 kmh WNW 4.0 mph6.4 kmh 28.67 in970.9 mb 0.00 in0.0 mm 0.00 in0.0 mm 0.00 in0.0 mm
04:00 AM 36.7°F2.6°C 21.2°F-6.0°C 53% 2.5 mph ESE4.0 kmh ESE 2.5 mph4.0 kmh 28.67 in970.9 mb 0.00 in0.0 mm 0.00 in0.0 mm 0.00 in0.0 mm
03:53 AM 36.7°F2.6°C 21.2°F-6.0°C 53% 1.6 mph SSE2.6 kmh SSE 2.2 mph3.5 kmh 28.67 in970.9 mb 0.00 in0.0 mm 0.00 in0.0 mm 0.00 in0.0 mm
03:46 AM 36.9°F2.7°C 21.3°F-5.9°C 53% 2.7 mph ESE4.3 kmh ESE 2.9 mph4.7 kmh 28.67 in970.9 mb 0.00 in0.0 mm 0.00 in0.0 mm 0.00 in0.0 mm
03:39 AM 36.7°F2.6°C 21.2°F-6.0°C 53% 1.3 mph E2.1 kmh E 1.6 mph2.6 kmh 28.67 in970.9 mb 0.00 in0.0 mm 0.00 in0.0 mm 0.00 in0.0 mm
03:32 AM 36.7°F2.6°C 21.2°F-6.0°C 53% 1.3 mph WNW2.1 kmh WNW 2.5 mph4.0 kmh 28.67 in970.9 mb 0.00 in0.0 mm 0.00 in0.0 mm 0.00 in0.0 mm
03:25 AM 36.7°F2.6°C 21.2°F-6.0°C 53% 2.2 mph WNW3.5 kmh WNW 2.2 mph3.5 kmh 28.67 in970.9 mb 0.00 in0.0 mm 0.00 in0.0 mm 0.00 in0.0 mm
03:18 AM 36.7°F2.6°C 21.2°F-6.0°C 53% 2.0 mph ENE3.2 kmh ENE 3.6 mph5.8 kmh 28.67 in970.9 mb 0.00 in0.0 mm 0.00 in0.0 mm 0.00 in0.0 mm
03:11 AM 36.7°F2.6°C 21.2°F-6.0°C 53% 2.5 mph NNW4.0 kmh NNW 3.1 mph5.0 kmh 28.70 in971.9 mb 0.00 in0.0 mm 0.00 in0.0 mm 0.00 in0.0 mm
03:04 AM 36.7°F2.6°C 21.2°F-6.0°C 53% 3.1 mph NNW5.0 kmh NNW 3.4 mph5.5 kmh 28.70 in971.9 mb 0.00 in0.0 mm 0.00 in0.0 mm 0.00 in0.0 mm
02:57 AM 36.7°F2.6°C 21.2°F-6.0°C 53% 2.5 mph WSW4.0 kmh WSW 2.9 mph4.7 kmh 28.70 in971.9 mb 0.00 in0.0 mm 0.00 in0.0 mm 0.00 in0.0 mm
02:50 AM 36.7°F2.6°C 21.2°F-6.0°C 53% 2.7 mph NNE4.3 kmh NNE 2.7 mph4.3 kmh 28.70 in971.9 mb 0.00 in0.0 mm 0.00 in0.0 mm 0.00 in0.0 mm
02:43 AM 36.9°F2.7°C 21.8°F-5.7°C 54% 2.9 mph ENE4.7 kmh ENE 3.6 mph5.8 kmh 28.70 in971.9 mb 0.00 in0.0 mm 0.00 in0.0 mm 0.00 in0.0 mm
02:36 AM 37.0°F2.8°C 22.0°F-5.6°C 54% 1.3 mph W2.1 kmh W 3.4 mph5.5 kmh 28.73 in972.9 mb 0.00 in0.0 mm 0.00 in0.0 mm 0.00 in0.0 mm
02:29 AM 37.4°F3.0°C 22.7°F-5.2°C 55% 2.2 mph ESE3.5 kmh ESE 2.2 mph3.5 kmh 28.73 in972.9 mb 0.00 in0.0 mm 0.00 in0.0 mm 0.00 in0.0 mm
02:21 AM 37.6°F3.1°C 23.3°F-4.8°C 56% 1.6 mph SSE2.6 kmh SSE 2.5 mph4.0 kmh 28.70 in971.9 mb 0.00 in0.0 mm 0.00 in0.0 mm 0.00 in0.0 mm
02:15 AM 37.6°F3.1°C 23.3°F-4.8°C 56% 2.0 mph WSW3.2 kmh WSW 2.0 mph3.2 kmh 28.70 in971.9 mb 0.00 in0.0 mm 0.00 in0.0 mm 0.00 in0.0 mm
02:08 AM 37.6°F3.1°C 23.7°F-4.6°C 57% 2.0 mph NNW3.2 kmh NNW 2.5 mph4.0 kmh 28.73 in972.9 mb 0.00 in0.0 mm 0.00 in0.0 mm 0.00 in0.0 mm
02:01 AM 37.6°F3.1°C 24.2°F-4.3°C 58% 1.6 mph WNW2.6 kmh WNW 2.7 mph4.3 kmh 28.73 in972.9 mb 0.00 in0.0 mm 0.00 in0.0 mm 0.00 in0.0 mm
01:54 AM 37.6°F3.1°C 24.6°F-4.1°C 59% 2.2 mph NNE3.5 kmh NNE 2.9 mph4.7 kmh 28.73 in972.9 mb 0.00 in0.0 mm 0.00 in0.0 mm 0.00 in0.0 mm
01:47 AM 37.6°F3.1°C 25.0°F-3.9°C 60% 1.6 mph NNE2.6 kmh NNE 2.2 mph3.5 kmh 28.73 in972.9 mb 0.00 in0.0 mm 0.00 in0.0 mm 0.00 in0.0 mm
01:40 AM 37.8°F3.2°C 25.9°F-3.4°C 62% 2.7 mph WSW4.3 kmh WSW 2.7 mph4.3 kmh 28.73 in972.9 mb 0.00 in0.0 mm 0.00 in0.0 mm 0.00 in0.0 mm
01:33 AM 37.6°F3.1°C 26.1°F-3.3°C 63% 2.5 mph WSW4.0 kmh WSW 3.4 mph5.5 kmh 28.73 in972.9 mb 0.00 in0.0 mm 0.00 in0.0 mm 0.00 in0.0 mm
01:26 AM 37.6°F3.1°C 26.5°F-3.1°C 64% 2.0 mph WNW3.2 kmh WNW 2.5 mph4.0 kmh 28.76 in973.9 mb 0.00 in0.0 mm 0.00 in0.0 mm 0.00 in0.0 mm
01:18 AM 37.6°F3.1°C 26.9°F-2.8°C 65% 2.5 mph WNW4.0 kmh WNW 3.1 mph5.0 kmh 28.76 in973.9 mb 0.00 in0.0 mm 0.00 in0.0 mm 0.00 in0.0 mm
01:12 AM 37.6°F3.1°C 27.3°F-2.6°C 66% 2.9 mph WSW4.7 kmh WSW 2.9 mph4.7 kmh 28.76 in973.9 mb 0.00 in0.0 mm 0.00 in0.0 mm 0.00 in0.0 mm
01:05 AM 37.4°F3.0°C 27.1°F-2.7°C 66% 3.1 mph WNW5.0 kmh WNW 3.1 mph5.0 kmh 28.76 in973.9 mb 0.00 in0.0 mm 0.00 in0.0 mm 0.00 in0.0 mm
12:58 AM 37.2°F2.9°C 27.3°F-2.6°C 67% 2.7 mph NNE4.3 kmh NNE 2.7 mph4.3 kmh 28.76 in973.9 mb 0.00 in0.0 mm 0.00 in0.0 mm 0.00 in0.0 mm
12:51 AM 37.0°F2.8°C 26.8°F-2.9°C 66% 2.9 mph WSW4.7 kmh WSW 2.9 mph4.7 kmh 28.76 in973.9 mb 0.00 in0.0 mm 0.00 in0.0 mm 0.00 in0.0 mm
12:44 AM 36.9°F2.7°C 26.2°F-3.2°C 65% 2.5 mph SSE4.0 kmh SSE 2.5 mph4.0 kmh 28.76 in973.9 mb 0.00 in0.0 mm 0.00 in0.0 mm 0.00 in0.0 mm
12:37 AM 36.7°F2.6°C 25.3°F-3.7°C 63% 2.0 mph WNW3.2 kmh WNW 2.9 mph4.7 kmh 28.76 in973.9 mb 0.00 in0.0 mm 0.00 in0.0 mm 0.00 in0.0 mm
12:30 AM 36.7°F2.6°C 25.3°F-3.7°C 63% 1.3 mph WNW2.1 kmh WNW 1.3 mph2.1 kmh 28.76 in973.9 mb 0.00 in0.0 mm 0.00 in0.0 mm 0.00 in0.0 mm
12:23 AM 36.7°F2.6°C 24.9°F-3.9°C 62% 1.6 mph WNW2.6 kmh WNW 1.6 mph2.6 kmh 28.79 in974.9 mb 0.00 in0.0 mm 0.00 in0.0 mm 0.00 in0.0 mm
12:16 AM 36.7°F2.6°C 24.9°F-3.9°C 62% 0.9 mph NNW1.4 kmh NNW 0.9 mph1.4 kmh 28.79 in974.9 mb 0.00 in0.0 mm 0.00 in0.0 mm 0.00 in0.0 mm
12:09 AM 36.9°F2.7°C 25.1°F-3.8°C 62% 1.1 mph WNW1.8 kmh WNW 1.1 mph1.8 kmh 28.79 in974.9 mb 0.00 in0.0 mm 0.00 in0.0 mm 0.00 in0.0 mm
12:02 AM 37.0°F2.8°C 25.2°F-3.8°C 62% 1.6 mph WNW2.6 kmh WNW 1.6 mph2.6 kmh 28.79 in974.9 mb 0.00 in0.0 mm 0.00 in0.0 mm 0.00 in0.0 mm